• Join FlightAware (Why Join?)
  • Login
  • US Flag 
04:11AM EDT


 

Airport Tracker/Info


-or-


 

Live Flight TrackerFlight Track Log ✈ DAL1955 ✈ 12-May-2013 ✈ KATL - KCVG

Flight Track Log - Related Links

Times and Time Zones

All times are in EDT time to prevent confusion due to time zone crossing. See the DAL1955 flight status page for this flight to view local times or setup timezone preferences in your user account.

Time Position Orientation Groundspeed Altitude Reporting Facility
EDT Latitude Longitude Course Direction KTS MPH feet Rate Location/Type
05:22PM 33.6500 -84.4833 North 189 217 2,500  Level Atlanta TRACON
05:23PM 33.6833 -84.5500 301° West 250 288 5,200 2,760 Climbing Atlanta TRACON
05:24PM 33.8454 -84.1787 320° Northwest  Level FlightAware Approximate
05:24PM 33.7500 -84.5833 337° Northwest 272 313 8,300  Level Atlanta TRACON
05:25PM 33.9456 -84.2667 North  Level FlightAware Approximate
05:25PM 33.8167 -84.5500 23° Northeast 302 348 10,500  Level Atlanta TRACON
05:26PM 34.0722 -84.2667 North  Level FlightAware Approximate
05:26PM 33.8853 -84.5117 25° Northeast 320 368 11,800  Level Atlanta Center
05:27PM 34.1988 -84.2667 North  Level FlightAware Approximate
05:27PM 33.9981 -84.4522 24° Northeast 358 412 14,000  Level Atlanta Center
05:28PM 34.0839 -84.4000 27° Northeast 370 426 15,900 2,100 Climbing Atlanta Center
05:29PM 34.2072 -84.3303 25° Northeast 417 480 18,300 1,920 Climbing Atlanta Center
05:30PM 34.3075 -84.2778 23° Northeast 435 501 19,800 1,620 Climbing Atlanta Center
05:31PM 34.4286 -84.2503 11° North 435 501 21,600 1,740 Climbing Atlanta Center
05:32PM 34.5517 -84.2228 10° North 435 501 23,300 1,740 Climbing Atlanta Center
05:33PM 34.6750 -84.1928 11° North 454 522 25,100 1,860 Climbing Atlanta Center
05:34PM 34.8003 -84.1653 10° North 454 522 27,100 1,680 Climbing Atlanta Center
05:35PM 34.9233 -84.1350 11° North 449 517 28,500 1,260 Climbing Atlanta Center
05:36PM 35.0486 -84.1022 12° North 449 517 29,700 1,200 Climbing Atlanta Center
05:37PM 35.1736 -84.0744 10° North 449 517 31,000 1,200 Climbing Atlanta Center
05:38PM 35.3011 -84.0414 12° North 449 517 32,100 960 Climbing Atlanta Center
05:39PM 35.4261 -84.0133 10° North 449 517 33,000 900 Climbing Atlanta Center
05:40PM 35.5514 -83.9825 11° North 449 517 33,900 480 Climbing Atlanta Center
05:41PM 35.6786 -83.9519 11° North 449 517 34,000  Climbing Atlanta Center
05:42PM 35.8058 -83.9183 12° North 454 522 34,000  Level Atlanta Center
05:43PM 35.9350 -83.8900 10° North 460 529 34,000  Level Atlanta Center
05:44PM 36.0622 -83.8692 North 460 529 34,000  Level Atlanta Center
05:45PM 36.1894 -83.8458 North 465 535 34,000  Level Atlanta Center
05:47PM 36.4175 -83.8047 North 466 536 34,000  Level Indianapolis Center
05:48PM 36.5592 -83.7817 North 461 531 34,000  Level Indianapolis Center
05:49PM 36.6819 -83.7603 North 446 513 34,000  Level Indianapolis Center
05:50PM 36.8039 -83.7389 North 441 507 34,000 -300 Level Indianapolis Center
05:51PM 36.9261 -83.7175 North 440 506 33,400 -1,020 Descending Indianapolis Center
05:52PM 37.0714 -83.6925 North 449 517 32,000 -720 Descending Indianapolis Center
05:53PM 37.1961 -83.6689 North 451 519 32,000 -1,020 Level Indianapolis Center
05:54PM 37.3192 -83.6472 North 445 512 30,000 -2,820 Descending Indianapolis Center
05:55PM 37.4467 -83.6253 North 457 526 26,200 -2,940 Descending Indianapolis Center
05:56PM 37.5717 -83.6017 North 452 520 24,000 -1,080 Descending Indianapolis Center
05:57PM 37.6847 -83.6178 354° North 415 478 24,000 -780 Level Indianapolis Center
05:58PM 37.7947 -83.6947 331° Northwest 387 445 22,400 -1,020 Descending Indianapolis Center
05:59PM 37.8886 -83.7608 331° Northwest 386 444 22,000 -240 Descending Indianapolis Center
06:00PM 37.9828 -83.8258 331° Northwest 385 443 22,000 -360 Level Indianapolis Center
06:01PM 38.0758 -83.8928 330° Northwest 384 442 21,300 -1,680 Descending Indianapolis Center
06:02PM 38.1661 -83.9581 330° Northwest 374 430 18,600 -2,700 Descending Indianapolis Center
06:03PM 38.2558 -84.0214 331° Northwest 368 423 15,800 -3,000 Descending Indianapolis Center
06:04PM 38.3553 -84.0936 330° Northwest 354 407 12,500 -2,280 Descending Indianapolis Center
06:05PM 38.4386 -84.1556 330° Northwest 345 397 11,100 -780 Descending Indianapolis Center
06:06PM 38.5178 -84.2247 326° Northwest 344 396 10,900 -480 Descending Indianapolis Center
06:08PM 38.5683 -84.3144 306° West 311 358 10,200 -900 Descending Indianapolis Center
06:09PM 38.6108 -84.3853 308° West 257 296 9,100 -1,260 Descending Indianapolis Center
06:10PM 38.6583 -84.4631 308° West 255 293 7,600 -1,560 Descending Indianapolis Center
06:11PM 38.7075 -84.5400 309° West 256 295 5,900 -1,320 Descending Indianapolis Center
06:12PM 38.7528 -84.6025 313° West 253 291 4,900 -1,140 Descending Indianapolis Center
06:14PM 38.8833 -84.6667 339° North 234 269 2,600 -1,200 Descending Cincinnati TRACON